Airfield :
LOGIN :

Register | Disclaimer

   EN    FR    IT 

 










Legend :    VFR   Marginal VFR   IFR   Intensive IFR   Very Intensive IFR
Visi :
Ceiling :
>= 8 km
>= 3000ft
5 to 8 km
1000 to 3000 ft
1500m to 5 km
500 to 1000 ft
800 to 1500m
200 to 500 ft
< 800m
< 200 ft
Symbols :   Thunderstorms  Fog  Heavy snow  Heavy precipitations  Wind > 20 kt
SIGMETs :     Misc.  Thunderstorms  Icing  Turbulence  Mountain Waves  Volcanic Ashes







- Airport Elevation : 313 ft
- IATA code : LEH
- Download approach charts


LFOH - Le Havre Octeville

EXPIRED METARs :
  • 241430Z AUTO 28008KT 9999 OVC035 18/14 Q1018 NOSIG
  • 241400Z AUTO 26009KT 9999 OVC029 19/15 Q1018 NOSIG
  • 241330Z AUTO 24010KT 9999 OVC031 20/15 Q1018 NOSIG
  • 241300Z AUTO 24010KT 9999 BKN021 OVC027 19/15 Q1018 NOSIG
  • 241230Z AUTO 25010KT 9999 OVC021 18/15 Q1018 NOSIG
  • 241200Z AUTO 23010KT 9999 OVC022 18/15 Q1018 NOSIG

Expired Forecast.
ATIS : +33 2 35 54 64 93
No reported NOTAMs for that airfield.
1 SIGMET reported for the Paris FIR (LFFF) :
 
Severe turbulence
LFFF SIGMET 1 VALID 250000/250300 LFPW
LFFF PARIS FIR/UIR SEV TURB FCST WI N5015 E00415 - N4930 E00600 - N4900 E00445 - N4830 E00530 - N4730 E00415 - N4645 E00445 - N4645 E00315 FL300/370 MOV SE 15KT NC=



MET'MAP, your aeronautical weather chart ! - Copyright ORBIFLY December 2007 - Disclaimer

ORBIFLY MET'MAP TEAM :

Programming & Development : Alexandra Zaïnal
Concept & Development : Baudouin d'Aumeries
Co-Development & Prog : Marc-Olivier Méhu
Technical & hardware support : Manuel Goepfert

Contact : metmap@orbifly.com




SOURCES & CREDITS :

   NOAA